Accueil
METAR-TAF:

METAR-TAF

Aéroports :

Aéroport Lourdes-de-Blanc-Sablon

Blanc-Sablon, Québec, Canada

latitude: 51-27N, longitude: 057-11W, altitude: 30 m

Observation

Le bulletin a été fait il y a 26 minutes, à 21:00 UTC
Vent 8 kt de ouest
Température 1°C
Humidité 69%
Pression 1013 hPa
Visibilité: 24.1 km
Ciel couvert à une hauteur de 4700 ft
neige faible

METAR: CYBX 242100Z 26008KT 15SM -SN OVC047 01/M04 A2992 RMK SC8 SLP136

Heure: 17:26 (21:26 UTC)

Prévision

Le bulletin a été fait il y a 1 heure et 48 minutes, à 19:38 UTC
Prévision valable du 24 à 20 UTC au 25 à 08 UTC
Vent 10 kt de nord/nord-est
Visibilité: 10 km
Nuages fragmentés à une hauteur de 5000 ft
Evoluant progressivement
du 25 à 00 UTC au 25 à 02 UTC
Vent 5 kt de nord-est

TAF: CYBX 241938Z 2420/2508 03010KT P6SM BKN050 BECMG 2500/2502 04005KT RMK NXT FCST BY 250200Z

Observations et prévisions météorologiques de plus de 4000 aéroports (messages METAR et TAF).

Les stations disponibles sont représentées par des disques jaunes et rouges sur la carte.

Passer la souris dessus pour voir le nom de la station.

Cliquer dessus pour voir les observations et prévisions météorologiques.

Pour changer de carte: cliquez sur les boutons verts avec une croix noire pour zoomer, sur le bouton vert avec un tiret pour effectuer un zoom arrière, ou sur les flèches vertes pour les cartes adjacentes.


METAR-TAF: